createdAt,value
2022-12-24T00:01:33.092Z,9.53
2022-12-24T00:03:59.560Z,9.55
2022-12-24T00:06:25.988Z,9.53
2022-12-24T00:08:52.486Z,9.52
2022-12-24T00:11:19.706Z,9.53
2022-12-24T00:13:46.301Z,9.53
2022-12-24T00:16:12.860Z,9.53
2022-12-24T00:18:45.547Z,9.50
2022-12-24T00:21:13.073Z,9.51
2022-12-24T00:23:40.423Z,9.52
2022-12-24T00:26:06.846Z,9.52
2022-12-24T00:28:33.191Z,9.52
2022-12-24T00:30:59.542Z,9.52
2022-12-24T00:33:26.062Z,9.52
2022-12-24T00:35:53.120Z,9.53
2022-12-24T00:38:19.616Z,9.52
2022-12-24T00:40:46.074Z,9.50
2022-12-24T00:43:12.550Z,9.51
2022-12-24T00:45:38.921Z,9.49
2022-12-24T00:48:05.605Z,9.47
2022-12-24T00:50:31.961Z,9.46
2022-12-24T00:52:58.337Z,9.45
2022-12-24T00:55:24.713Z,9.46
2022-12-24T00:57:51.092Z,9.45
2022-12-24T01:00:17.987Z,9.45
2022-12-24T01:02:44.848Z,9.45
2022-12-24T01:05:11.868Z,9.44
2022-12-24T01:07:44.051Z,9.42
2022-12-24T01:10:13.038Z,9.42
2022-12-24T01:12:39.527Z,9.42
2022-12-24T01:15:06.687Z,9.40
2022-12-24T01:17:34.142Z,9.39
2022-12-24T01:20:00.893Z,9.36
2022-12-24T01:22:27.412Z,9.35
2022-12-24T01:24:53.786Z,9.33
2022-12-24T01:27:20.263Z,9.29
2022-12-24T01:29:46.623Z,9.26
2022-12-24T01:32:12.978Z,9.25
2022-12-24T01:34:39.347Z,9.22
2022-12-24T01:37:05.762Z,9.20
2022-12-24T01:39:32.498Z,9.18
2022-12-24T01:42:17.587Z,9.15
2022-12-24T01:44:51.347Z,9.13
2022-12-24T01:47:19.888Z,9.11
2022-12-24T01:50:17.726Z,9.09
2022-12-24T01:52:44.268Z,9.08
2022-12-24T01:55:15.462Z,9.03
2022-12-24T01:57:46.432Z,8.99
2022-12-24T02:00:15.751Z,8.97
2022-12-24T02:02:46.377Z,8.95
2022-12-24T02:05:18.776Z,8.96
2022-12-24T02:07:46.399Z,8.96
2022-12-24T02:10:14.109Z,8.93
2022-12-24T02:12:42.145Z,8.92
2022-12-24T02:15:11.462Z,8.90
2022-12-24T02:17:49.632Z,8.83
2022-12-24T02:20:50.062Z,8.82
2022-12-24T02:23:35.386Z,8.83
2022-12-24T02:26:52.911Z,8.80
2022-12-24T02:29:47.308Z,8.77
2022-12-24T02:32:22.879Z,8.74
2022-12-24T02:35:02.419Z,8.74
2022-12-24T02:37:34.948Z,8.74
2022-12-24T02:40:13.830Z,8.73
2022-12-24T02:42:46.426Z,8.72
2022-12-24T02:45:28.984Z,8.67
2022-12-24T02:47:56.396Z,8.66
2022-12-24T02:50:23.718Z,8.64
2022-12-24T02:52:50.788Z,8.62
2022-12-24T02:55:19.968Z,8.63
2022-12-24T02:58:02.548Z,8.59
2022-12-24T03:00:40.882Z,8.56
2022-12-24T03:03:28.516Z,8.54
2022-12-24T03:06:20.167Z,8.56
2022-12-24T03:08:58.997Z,8.52
2022-12-24T03:11:25.784Z,8.56
2022-12-24T03:13:55.155Z,8.56
2022-12-24T03:16:24.828Z,8.57
2022-12-24T03:18:54.308Z,8.53
2022-12-24T03:21:35.592Z,8.52
2022-12-24T03:24:02.556Z,8.52
2022-12-24T03:26:31.049Z,8.51
2022-12-24T03:28:57.485Z,8.53
2022-12-24T03:31:24.083Z,8.50
2022-12-24T03:33:50.785Z,8.49
2022-12-24T03:36:17.374Z,8.49
2022-12-24T03:38:43.890Z,8.48
2022-12-24T03:41:10.390Z,8.47
2022-12-24T03:43:36.774Z,8.46
2022-12-24T03:46:06.216Z,8.45
2022-12-24T03:48:35.146Z,8.44
2022-12-24T03:51:02.543Z,8.42
2022-12-24T03:53:28.933Z,8.45
2022-12-24T03:55:55.308Z,8.44
2022-12-24T03:58:21.657Z,8.43
2022-12-24T04:00:48.025Z,8.45
2022-12-24T04:03:14.596Z,8.46
2022-12-24T04:05:41.066Z,8.47
2022-12-24T04:08:07.384Z,8.51
2022-12-24T04:10:33.725Z,8.52
2022-12-24T04:13:00.103Z,8.53
2022-12-24T04:15:26.572Z,8.54
2022-12-24T04:17:52.973Z,8.58
2022-12-24T04:20:19.592Z,8.59
2022-12-24T04:22:45.988Z,8.60
2022-12-24T04:25:12.305Z,8.62
2022-12-24T04:27:38.694Z,8.64
2022-12-24T04:30:05.801Z,8.65
2022-12-24T04:32:32.176Z,8.65
2022-12-24T04:34:58.505Z,8.67
2022-12-24T04:37:24.931Z,8.67
2022-12-24T04:39:51.308Z,8.68
2022-12-24T04:42:17.655Z,8.70
2022-12-24T04:44:44.063Z,8.72
2022-12-24T04:47:10.887Z,8.73
2022-12-24T04:49:37.369Z,8.73
2022-12-24T04:52:03.757Z,8.73
2022-12-24T04:54:30.118Z,8.72
2022-12-24T04:56:56.433Z,8.73
2022-12-24T04:59:22.789Z,8.72
2022-12-24T05:01:49.285Z,8.74
2022-12-24T05:04:15.681Z,8.75
2022-12-24T05:06:42.069Z,8.74
2022-12-24T05:09:08.418Z,8.76
2022-12-24T05:11:34.833Z,8.77
2022-12-24T05:14:01.275Z,8.76
2022-12-24T05:16:27.697Z,8.78
2022-12-24T05:18:54.508Z,8.78
2022-12-24T05:21:23.244Z,8.79
2022-12-24T05:24:08.595Z,8.79
2022-12-24T05:26:37.726Z,8.80
2022-12-24T05:29:05.537Z,8.81
2022-12-24T05:31:33.755Z,8.81
2022-12-24T05:34:01.290Z,8.80
2022-12-24T05:36:27.862Z,8.80
2022-12-24T05:38:54.289Z,8.80
2022-12-24T05:41:20.802Z,8.80
2022-12-24T05:43:47.342Z,8.80
2022-12-24T05:46:16.790Z,8.81
2022-12-24T05:48:43.207Z,8.80
2022-12-24T05:51:12.616Z,8.81
2022-12-24T05:53:40.208Z,8.82
2022-12-24T05:56:13.002Z,8.83
2022-12-24T05:58:40.607Z,8.84
2022-12-24T06:01:08.330Z,8.84
2022-12-24T06:03:34.814Z,8.86
2022-12-24T06:06:03.366Z,8.86
2022-12-24T06:08:31.212Z,8.87
2022-12-24T06:11:03.688Z,8.88
2022-12-24T06:13:31.242Z,8.88
2022-12-24T06:15:59.714Z,8.88
2022-12-24T06:18:26.748Z,8.88
2022-12-24T06:20:55.871Z,8.88
2022-12-24T06:23:22.970Z,8.88
2022-12-24T06:25:49.543Z,8.89
2022-12-24T06:28:16.472Z,8.89
2022-12-24T06:30:47.610Z,8.90
2022-12-24T06:33:14.584Z,8.90
2022-12-24T06:35:41.380Z,8.93
2022-12-24T06:38:07.768Z,8.92
2022-12-24T06:40:34.094Z,8.90
2022-12-24T06:43:00.490Z,8.90
2022-12-24T06:45:26.901Z,8.91
2022-12-24T06:47:53.301Z,8.92
2022-12-24T06:50:19.630Z,8.92
2022-12-24T06:52:46.044Z,8.90
2022-12-24T06:55:12.381Z,8.92
2022-12-24T06:57:38.776Z,8.91
2022-12-24T07:00:07.565Z,8.92
2022-12-24T07:02:34.036Z,8.94
2022-12-24T07:05:00.559Z,8.95
2022-12-24T07:07:26.992Z,8.95
2022-12-24T07:09:53.329Z,8.96
2022-12-24T07:12:19.650Z,8.96
2022-12-24T07:14:45.991Z,8.95
2022-12-24T07:17:12.526Z,8.94
2022-12-24T07:19:38.913Z,8.93
2022-12-24T07:22:10.216Z,8.93
2022-12-24T07:24:39.828Z,8.91
2022-12-24T07:27:06.202Z,8.92
2022-12-24T07:29:32.526Z,8.89
2022-12-24T07:31:59.006Z,8.89
2022-12-24T07:34:25.398Z,8.88
2022-12-24T07:36:51.821Z,8.87
2022-12-24T07:39:18.198Z,8.88
2022-12-24T07:41:44.595Z,8.89
2022-12-24T07:44:14.728Z,8.90
2022-12-24T07:46:41.285Z,8.90
2022-12-24T07:49:08.006Z,8.93
2022-12-24T07:51:34.349Z,8.93
2022-12-24T07:54:00.715Z,8.93
2022-12-24T07:56:27.136Z,8.93
2022-12-24T07:58:53.471Z,8.93
2022-12-24T08:01:19.924Z,8.93
2022-12-24T08:03:46.708Z,8.93
2022-12-24T08:06:13.231Z,8.93
2022-12-24T08:08:39.654Z,8.93
2022-12-24T08:11:06.893Z,8.94
2022-12-24T08:13:33.682Z,8.94
2022-12-24T08:16:00.155Z,8.93
2022-12-24T08:18:26.606Z,8.93
2022-12-24T08:20:52.987Z,8.93
2022-12-24T08:23:19.319Z,8.94
2022-12-24T08:25:47.181Z,8.93
2022-12-24T08:28:16.467Z,8.93
2022-12-24T08:30:43.452Z,8.92
2022-12-24T08:33:10.357Z,8.93
2022-12-24T08:35:37.172Z,8.93
2022-12-24T08:38:03.658Z,8.95
2022-12-24T08:40:30.083Z,8.96
2022-12-24T08:42:56.691Z,8.98
2022-12-24T08:45:23.132Z,8.98
2022-12-24T08:47:49.533Z,8.99
2022-12-24T08:50:16.184Z,9.00
2022-12-24T08:52:42.569Z,9.01
2022-12-24T08:55:09.214Z,9.02
2022-12-24T08:57:37.273Z,9.03
2022-12-24T09:00:06.692Z,9.05
2022-12-24T09:02:33.405Z,9.05
2022-12-24T09:04:59.836Z,9.07
2022-12-24T09:07:26.352Z,9.10
2022-12-24T09:09:52.743Z,9.11
2022-12-24T09:12:19.132Z,9.12
2022-12-24T09:14:45.635Z,9.13
2022-12-24T09:17:12.020Z,9.13
2022-12-24T09:19:38.587Z,9.16
2022-12-24T09:22:04.946Z,9.18
2022-12-24T09:24:31.706Z,9.20
2022-12-24T09:26:58.330Z,9.22
2022-12-24T09:29:25.121Z,9.22
2022-12-24T09:31:51.677Z,9.24
2022-12-24T09:34:18.083Z,9.25
2022-12-24T09:36:46.145Z,9.26
2022-12-24T09:39:12.900Z,9.27
2022-12-24T09:42:06.040Z,9.29
2022-12-24T09:44:47.195Z,9.31
2022-12-24T09:47:26.316Z,9.31
2022-12-24T09:49:56.651Z,9.32
2022-12-24T09:52:45.505Z,9.32
2022-12-24T09:55:25.400Z,9.33
2022-12-24T09:57:54.508Z,9.31
2022-12-24T10:00:24.394Z,9.30
2022-12-24T10:02:51.106Z,9.31
2022-12-24T10:05:22.706Z,9.33
2022-12-24T10:08:30.553Z,9.34
2022-12-24T10:11:38.631Z,9.37
2022-12-24T10:14:26.363Z,9.35
2022-12-24T10:17:21.562Z,9.35
2022-12-24T10:19:59.584Z,9.35
2022-12-24T10:22:58.065Z,9.37
2022-12-24T10:25:49.476Z,9.38
2022-12-24T10:28:20.530Z,9.39
2022-12-24T10:30:50.149Z,9.42
2022-12-24T10:33:26.514Z,9.46
2022-12-24T10:35:56.363Z,9.49
2022-12-24T10:38:22.909Z,9.52
2022-12-24T10:40:52.976Z,9.56
2022-12-24T10:43:22.225Z,9.60
2022-12-24T10:45:56.087Z,9.65
2022-12-24T10:48:33.394Z,9.69
2022-12-24T10:51:06.262Z,9.71
2022-12-24T10:54:00.516Z,9.71
2022-12-24T10:56:28.120Z,9.69
2022-12-24T10:58:55.499Z,9.68
2022-12-24T11:01:49.718Z,9.67
2022-12-24T11:04:24.640Z,9.64
2022-12-24T11:07:03.012Z,9.64
2022-12-24T11:09:32.971Z,9.64
2022-12-24T11:12:08.416Z,9.65
2022-12-24T11:14:38.739Z,9.65
2022-12-24T11:17:05.800Z,9.66
2022-12-24T11:19:35.391Z,9.65
2022-12-24T11:22:22.805Z,9.65
2022-12-24T11:24:57.867Z,9.64
2022-12-24T11:27:38.818Z,9.65
2022-12-24T11:30:30.823Z,9.67
2022-12-24T11:33:00.042Z,9.67
2022-12-24T11:35:27.593Z,9.67
2022-12-24T11:37:59.859Z,9.66
2022-12-24T11:40:35.483Z,9.66
2022-12-24T11:43:03.613Z,9.64
2022-12-24T11:45:32.453Z,9.64
2022-12-24T11:48:00.101Z,9.63
2022-12-24T11:50:29.678Z,9.63
2022-12-24T11:53:19.869Z,9.62
2022-12-24T11:55:54.981Z,9.63
2022-12-24T11:58:42.854Z,9.63
2022-12-24T12:01:21.787Z,9.64
2022-12-24T12:04:05.024Z,9.64
2022-12-24T12:06:34.177Z,9.66
2022-12-24T12:09:05.779Z,9.67
2022-12-24T12:11:35.560Z,9.69
2022-12-24T12:14:03.846Z,9.70
2022-12-24T12:17:03.735Z,9.73
2022-12-24T12:19:38.400Z,9.72
2022-12-24T12:22:11.393Z,9.71
2022-12-24T12:24:45.502Z,9.72
2022-12-24T12:27:20.427Z,9.73
2022-12-24T12:29:55.604Z,9.72
2022-12-24T12:32:38.999Z,9.72
2022-12-24T12:35:14.128Z,9.72
2022-12-24T12:37:45.442Z,9.71
2022-12-24T12:40:17.613Z,9.70
2022-12-24T12:43:01.367Z,9.70
2022-12-24T12:45:49.710Z,9.68
2022-12-24T12:48:24.923Z,9.68
2022-12-24T12:51:04.773Z,9.68
2022-12-24T12:54:14.164Z,9.69
2022-12-24T12:56:48.427Z,9.71
2022-12-24T12:59:14.838Z,9.72
2022-12-24T13:01:54.285Z,9.73
2022-12-24T13:04:39.571Z,9.71
2022-12-24T13:07:38.381Z,9.71
2022-12-24T13:10:41.740Z,9.71
2022-12-24T13:13:39.377Z,9.70
2022-12-24T13:16:33.922Z,9.69
2022-12-24T13:19:38.457Z,9.67
2022-12-24T13:22:13.501Z,9.66
2022-12-24T13:24:40.052Z,9.68
2022-12-24T13:27:17.428Z,9.68
2022-12-24T13:30:07.266Z,9.71
2022-12-24T13:32:51.345Z,9.73
2022-12-24T13:35:20.628Z,9.74
2022-12-24T13:37:48.866Z,9.76
2022-12-24T13:40:15.792Z,9.77
2022-12-24T13:43:06.470Z,9.78
2022-12-24T13:45:38.996Z,9.78
2022-12-24T13:48:11.176Z,9.79
2022-12-24T13:50:52.848Z,9.78
2022-12-24T13:53:41.973Z,9.77
2022-12-24T13:56:14.420Z,9.77
2022-12-24T13:58:45.502Z,9.76
2022-12-24T14:01:16.321Z,9.75
2022-12-24T14:03:45.503Z,9.73
2022-12-24T14:06:23.353Z,9.73
2022-12-24T14:08:53.431Z,9.72
2022-12-24T14:11:22.633Z,9.73
2022-12-24T14:13:48.977Z,9.74
2022-12-24T14:16:18.791Z,9.75
2022-12-24T14:19:25.073Z,9.76
2022-12-24T14:22:18.601Z,9.75
2022-12-24T14:24:53.633Z,9.75
2022-12-24T14:27:25.604Z,9.76
2022-12-24T14:29:57.801Z,9.74
2022-12-24T14:32:24.177Z,9.74
2022-12-24T14:35:21.628Z,9.74
2022-12-24T14:38:00.491Z,9.74
2022-12-24T14:40:30.448Z,9.75
2022-12-24T14:43:14.263Z,9.75
2022-12-24T14:45:51.717Z,9.75
2022-12-24T14:48:34.344Z,9.76
2022-12-24T14:51:06.648Z,9.75
2022-12-24T14:53:59.086Z,9.74
2022-12-24T14:56:25.644Z,9.71
2022-12-24T14:58:52.386Z,9.68
2022-12-24T15:01:26.529Z,9.67
2022-12-24T15:04:09.305Z,9.66
2022-12-24T15:06:49.233Z,9.65
2022-12-24T15:09:20.202Z,9.64
2022-12-24T15:11:49.407Z,9.64
2022-12-24T15:14:16.493Z,9.64
2022-12-24T15:16:54.625Z,9.62
2022-12-24T15:19:27.105Z,9.61
2022-12-24T15:21:54.830Z,9.63
2022-12-24T15:24:36.646Z,9.62
2022-12-24T15:27:15.296Z,9.61
2022-12-24T15:29:47.415Z,9.58
2022-12-24T15:32:15.864Z,9.55
2022-12-24T15:34:44.804Z,9.51
2022-12-24T15:37:29.069Z,9.49
2022-12-24T15:39:58.011Z,9.48
2022-12-24T15:42:26.173Z,9.45
2022-12-24T15:45:12.917Z,9.44
2022-12-24T15:47:47.255Z,9.45
2022-12-24T15:50:28.389Z,9.45
2022-12-24T15:53:19.471Z,9.45
2022-12-24T15:55:45.471Z,9.44
2022-12-24T15:58:25.558Z,9.44
2022-12-24T16:01:14.317Z,9.43
2022-12-24T16:04:01.492Z,9.41
2022-12-24T16:06:28.395Z,9.40
2022-12-24T16:08:56.403Z,9.40
2022-12-24T16:11:24.709Z,9.39
2022-12-24T16:13:51.097Z,9.38
2022-12-24T16:16:32.909Z,9.35
2022-12-24T16:19:01.169Z,9.32
2022-12-24T16:21:34.518Z,9.30
2022-12-24T16:24:15.169Z,9.26
2022-12-24T16:26:41.573Z,9.23
2022-12-24T16:29:08.453Z,9.15
2022-12-24T16:31:38.713Z,9.10
2022-12-24T16:34:05.886Z,9.12
2022-12-24T16:36:32.897Z,9.06
2022-12-24T16:39:18.579Z,9.01
2022-12-24T16:42:03.198Z,9.00
2022-12-24T16:44:29.674Z,8.93
2022-12-24T16:46:56.391Z,8.94
2022-12-24T16:49:23.460Z,8.97
2022-12-24T16:51:49.896Z,8.99
2022-12-24T16:54:16.318Z,8.97
2022-12-24T16:56:43.804Z,8.90
2022-12-24T16:59:18.719Z,8.92
2022-12-24T17:01:45.311Z,8.92
2022-12-24T17:04:11.906Z,8.94
2022-12-24T17:06:38.287Z,8.92
2022-12-24T17:09:05.456Z,8.91
2022-12-24T17:11:32.255Z,8.90
2022-12-24T17:13:58.618Z,8.87
2022-12-24T17:16:25.086Z,8.81
2022-12-24T17:18:52.101Z,8.71
2022-12-24T17:21:19.174Z,8.69
2022-12-24T17:23:45.852Z,8.70
2022-12-24T17:26:15.250Z,8.63
2022-12-24T17:28:42.953Z,8.55
2022-12-24T17:31:11.352Z,8.51
2022-12-24T17:33:37.810Z,8.42
2022-12-24T17:36:04.833Z,8.45
2022-12-24T17:38:31.230Z,8.45
2022-12-24T17:41:06.468Z,8.43
2022-12-24T17:43:36.502Z,8.49
2022-12-24T17:46:07.461Z,8.44
2022-12-24T17:48:33.925Z,8.38
2022-12-24T17:51:07.871Z,8.33
2022-12-24T17:53:35.386Z,8.30
2022-12-24T17:56:02.074Z,8.31
2022-12-24T17:58:29.680Z,8.25
2022-12-24T18:00:57.002Z,8.27
2022-12-24T18:03:23.905Z,8.26
2022-12-24T18:05:51.760Z,8.20
2022-12-24T18:08:19.340Z,8.16
2022-12-24T18:10:46.629Z,8.13
2022-12-24T18:13:19.108Z,8.09
2022-12-24T18:15:45.964Z,8.10
2022-12-24T18:18:12.364Z,8.06
2022-12-24T18:20:46.019Z,8.06
2022-12-24T18:23:13.259Z,8.04
2022-12-24T18:25:39.643Z,8.05
2022-12-24T18:28:05.985Z,8.08
2022-12-24T18:30:32.328Z,8.06
2022-12-24T18:33:00.329Z,8.07
2022-12-24T18:35:26.876Z,8.02
2022-12-24T18:37:53.431Z,7.98
2022-12-24T18:40:20.493Z,7.98
2022-12-24T18:42:46.880Z,7.93
2022-12-24T18:45:13.408Z,7.90
2022-12-24T18:47:39.779Z,7.86
2022-12-24T18:50:07.408Z,7.84
2022-12-24T18:52:35.075Z,7.83
2022-12-24T18:55:01.499Z,7.80
2022-12-24T18:57:27.940Z,7.80
2022-12-24T18:59:55.856Z,7.81
2022-12-24T19:02:22.319Z,7.78
2022-12-24T19:04:48.824Z,7.74
2022-12-24T19:07:15.246Z,7.77
2022-12-24T19:09:41.667Z,7.74
2022-12-24T19:12:08.136Z,7.72
2022-12-24T19:14:34.544Z,7.70
2022-12-24T19:17:00.923Z,7.64
2022-12-24T19:19:27.542Z,7.69
2022-12-24T19:21:53.937Z,7.71
2022-12-24T19:24:20.382Z,7.70
2022-12-24T19:26:46.789Z,7.67
2022-12-24T19:29:13.166Z,7.63
2022-12-24T19:31:40.601Z,7.62
2022-12-24T19:34:07.109Z,7.58
2022-12-24T19:36:34.600Z,7.59
2022-12-24T19:39:01.086Z,7.54
2022-12-24T19:41:29.306Z,7.57
2022-12-24T19:43:58.111Z,7.53
2022-12-24T19:46:33.133Z,7.52
2022-12-24T19:49:02.325Z,7.53
2022-12-24T19:51:29.435Z,7.60
2022-12-24T19:53:58.189Z,7.60
2022-12-24T19:56:26.258Z,7.52
2022-12-24T19:58:54.191Z,7.52
2022-12-24T20:01:23.509Z,7.58
2022-12-24T20:03:51.604Z,7.59
2022-12-24T20:06:21.605Z,7.59
2022-12-24T20:08:48.287Z,7.57
2022-12-24T20:11:17.616Z,7.55
2022-12-24T20:13:44.701Z,7.61
2022-12-24T20:16:18.044Z,7.63
2022-12-24T20:18:44.575Z,7.69
2022-12-24T20:21:13.152Z,7.70
2022-12-24T20:23:40.757Z,7.77
2022-12-24T20:26:10.608Z,7.81
2022-12-24T20:28:37.357Z,7.86
2022-12-24T20:31:16.928Z,7.89
2022-12-24T20:33:44.375Z,7.93
2022-12-24T20:36:12.169Z,7.95
2022-12-24T20:38:39.195Z,7.96
2022-12-24T20:41:06.401Z,7.98
2022-12-24T20:43:37.226Z,7.99
2022-12-24T20:46:06.529Z,8.01
2022-12-24T20:48:33.510Z,8.00
2022-12-24T20:50:59.950Z,8.01
2022-12-24T20:53:26.761Z,8.02
2022-12-24T20:55:53.910Z,8.01
2022-12-24T20:58:20.550Z,8.04
2022-12-24T21:00:48.185Z,8.04
2022-12-24T21:03:15.671Z,8.04
2022-12-24T21:05:42.573Z,8.04
2022-12-24T21:08:10.164Z,8.06
2022-12-24T21:10:37.643Z,8.04
2022-12-24T21:13:04.718Z,8.05
2022-12-24T21:15:35.031Z,8.03
2022-12-24T21:18:04.661Z,8.06
2022-12-24T21:20:31.367Z,8.05
2022-12-24T21:23:01.031Z,8.05
2022-12-24T21:25:27.990Z,8.05
2022-12-24T21:27:55.565Z,8.06
2022-12-24T21:30:22.526Z,8.05
2022-12-24T21:32:48.987Z,8.03
2022-12-24T21:35:15.655Z,8.03
2022-12-24T21:37:42.319Z,8.04
2022-12-24T21:40:09.979Z,8.05
2022-12-24T21:42:37.030Z,8.05
2022-12-24T21:45:04.839Z,8.05
2022-12-24T21:47:31.222Z,8.04
2022-12-24T21:50:16.372Z,8.04
2022-12-24T21:52:42.797Z,8.04
2022-12-24T21:55:09.162Z,8.04
2022-12-24T21:57:53.781Z,8.04
2022-12-24T22:00:30.502Z,8.02
2022-12-24T22:02:58.578Z,8.02
2022-12-24T22:05:26.192Z,8.01
2022-12-24T22:08:12.742Z,8.01
2022-12-24T22:10:58.049Z,7.99
2022-12-24T22:13:24.985Z,7.98
2022-12-24T22:15:53.121Z,7.97
2022-12-24T22:18:22.461Z,7.99
2022-12-24T22:20:49.218Z,7.97
2022-12-24T22:23:16.681Z,7.95
2022-12-24T22:25:46.119Z,7.95
2022-12-24T22:28:12.485Z,7.96
2022-12-24T22:30:40.908Z,7.97
2022-12-24T22:33:08.424Z,7.96
2022-12-24T22:35:41.236Z,7.95
2022-12-24T22:38:09.200Z,7.94
2022-12-24T22:40:36.031Z,7.94
2022-12-24T22:43:02.351Z,7.93
2022-12-24T22:45:28.789Z,7.94
2022-12-24T22:47:55.335Z,7.94
2022-12-24T22:50:21.859Z,7.91
2022-12-24T22:52:48.270Z,7.89
2022-12-24T22:55:14.645Z,7.90
2022-12-24T22:57:41.004Z,7.88
2022-12-24T23:00:13.653Z,7.87
2022-12-24T23:02:40.121Z,7.87
2022-12-24T23:05:06.876Z,7.87
2022-12-24T23:07:33.265Z,7.87
2022-12-24T23:09:59.857Z,7.87
2022-12-24T23:12:44.582Z,7.89
2022-12-24T23:15:11.515Z,7.89
2022-12-24T23:17:37.914Z,7.87
2022-12-24T23:20:04.757Z,7.86
2022-12-24T23:22:31.160Z,7.85
2022-12-24T23:24:57.589Z,7.84
2022-12-24T23:27:24.079Z,7.84
2022-12-24T23:29:50.492Z,7.85
2022-12-24T23:32:16.852Z,7.85
2022-12-24T23:34:43.499Z,7.83
2022-12-24T23:37:09.887Z,7.84
2022-12-24T23:39:36.275Z,7.85
2022-12-24T23:42:02.686Z,7.85
2022-12-24T23:44:32.518Z,7.86
2022-12-24T23:46:59.443Z,7.86
2022-12-24T23:49:26.741Z,7.87
2022-12-24T23:51:53.186Z,7.86
2022-12-24T23:54:19.718Z,7.87
2022-12-24T23:56:46.047Z,7.86
2022-12-24T23:59:12.441Z,7.87
